sensor_id;sensor_type;location;lat;lon;timestamp;pressure;altitude;pressure_sealevel;temperature;humidity
68141;BME280;54941;52.220;104.306;2023-12-29T00:01:20;96579.03;;;-5.22;85.04
68141;BME280;54941;52.220;104.306;2023-12-29T00:03:48;96577.19;;;-5.24;84.94
68141;BME280;54941;52.220;104.306;2023-12-29T00:06:14;96579.91;;;-5.42;84.85
68141;BME280;54941;52.220;104.306;2023-12-29T00:08:41;96578.31;;;-5.39;85.51
68141;BME280;54941;52.220;104.306;2023-12-29T00:11:07;96585.94;;;-5.42;85.59
68141;BME280;54941;52.220;104.306;2023-12-29T00:13:33;96590.78;;;-5.29;85.37
68141;BME280;54941;52.220;104.306;2023-12-29T00:15:59;96591.72;;;-5.26;84.62
68141;BME280;54941;52.220;104.306;2023-12-29T00:18:26;96590.72;;;-5.30;85.02
68141;BME280;54941;52.220;104.306;2023-12-29T00:20:54;96596.94;;;-5.44;84.86
68141;BME280;54941;52.220;104.306;2023-12-29T00:23:20;96602.59;;;-5.53;85.65
68141;BME280;54941;52.220;104.306;2023-12-29T00:25:46;96608.41;;;-5.38;85.29
68141;BME280;54941;52.220;104.306;2023-12-29T00:28:13;96604.53;;;-5.28;84.26
68141;BME280;54941;52.220;104.306;2023-12-29T00:30:39;96612.66;;;-5.38;84.13
68141;BME280;54941;52.220;104.306;2023-12-29T00:33:05;96601.91;;;-5.30;84.22
68141;BME280;54941;52.220;104.306;2023-12-29T00:35:32;96606.25;;;-5.48;84.48
68141;BME280;54941;52.220;104.306;2023-12-29T00:37:59;96609.16;;;-5.60;85.08
68141;BME280;54941;52.220;104.306;2023-12-29T00:40:26;96611.50;;;-5.25;84.59
68141;BME280;54941;52.220;104.306;2023-12-29T00:42:52;96610.81;;;-5.21;83.75
68141;BME280;54941;52.220;104.306;2023-12-29T00:45:18;96608.03;;;-5.26;84.27
68141;BME280;54941;52.220;104.306;2023-12-29T00:47:45;96618.22;;;-5.29;84.22
68141;BME280;54941;52.220;104.306;2023-12-29T00:50:11;96622.38;;;-5.52;85.13
68141;BME280;54941;52.220;104.306;2023-12-29T00:52:38;96638.63;;;-5.53;85.23
68141;BME280;54941;52.220;104.306;2023-12-29T00:55:07;96640.38;;;-5.71;86.27
68141;BME280;54941;52.220;104.306;2023-12-29T00:57:33;96641.19;;;-5.72;85.99
68141;BME280;54941;52.220;104.306;2023-12-29T01:00:00;96644.78;;;-5.69;86.44
68141;BME280;54941;52.220;104.306;2023-12-29T01:02:27;96650.00;;;-5.67;86.31
68141;BME280;54941;52.220;104.306;2023-12-29T01:04:53;96643.28;;;-5.44;85.79
68141;BME280;54941;52.220;104.306;2023-12-29T01:07:19;96652.31;;;-5.54;86.13
68141;BME280;54941;52.220;104.306;2023-12-29T01:09:46;96652.69;;;-5.45;85.96
68141;BME280;54941;52.220;104.306;2023-12-29T01:12:13;96658.88;;;-5.61;86.40
68141;BME280;54941;52.220;104.306;2023-12-29T01:14:40;96657.19;;;-5.60;87.07
68141;BME280;54941;52.220;104.306;2023-12-29T01:17:06;96656.97;;;-5.26;86.58
68141;BME280;54941;52.220;104.306;2023-12-29T01:19:32;96659.28;;;-5.32;86.86
68141;BME280;54941;52.220;104.306;2023-12-29T01:21:59;96667.22;;;-5.66;87.15
68141;BME280;54941;52.220;104.306;2023-12-29T01:24:25;96668.03;;;-5.48;87.12
68141;BME280;54941;52.220;104.306;2023-12-29T01:26:52;96675.19;;;-5.21;86.77
68141;BME280;54941;52.220;104.306;2023-12-29T01:29:19;96672.75;;;-5.18;86.23
68141;BME280;54941;52.220;104.306;2023-12-29T01:31:46;96679.81;;;-5.53;86.74
68141;BME280;54941;52.220;104.306;2023-12-29T01:34:12;96677.03;;;-5.38;87.02
68141;BME280;54941;52.220;104.306;2023-12-29T01:36:38;96682.66;;;-5.28;86.70
68141;BME280;54941;52.220;104.306;2023-12-29T01:39:05;96688.88;;;-5.22;86.87
68141;BME280;54941;52.220;104.306;2023-12-29T01:41:31;96687.53;;;-5.34;86.62
68141;BME280;54941;52.220;104.306;2023-12-29T01:44:20;96698.44;;;-5.39;87.17
68141;BME280;54941;52.220;104.306;2023-12-29T01:46:49;96694.97;;;-5.59;88.37
68141;BME280;54941;52.220;104.306;2023-12-29T01:49:16;96698.91;;;-5.48;88.14
68141;BME280;54941;52.220;104.306;2023-12-29T01:51:42;96701.00;;;-5.59;88.54
68141;BME280;54941;52.220;104.306;2023-12-29T01:54:09;96693.06;;;-5.63;89.14
68141;BME280;54941;52.220;104.306;2023-12-29T01:56:36;96703.84;;;-5.33;88.90
68141;BME280;54941;52.220;104.306;2023-12-29T01:59:03;96695.53;;;-5.47;88.44
68141;BME280;54941;52.220;104.306;2023-12-29T02:01:31;96695.31;;;-5.13;87.91
68141;BME280;54941;52.220;104.306;2023-12-29T02:03:58;96696.47;;;-5.25;87.20
68141;BME280;54941;52.220;104.306;2023-12-29T02:32:17;96693.19;;;-4.83;87.61
68141;BME280;54941;52.220;104.306;2023-12-29T02:34:45;96697.06;;;-4.92;86.95
68141;BME280;54941;52.220;104.306;2023-12-29T02:37:14;96694.91;;;-4.62;85.68
68141;BME280;54941;52.220;104.306;2023-12-29T02:39:41;96696.81;;;-4.78;85.39
68141;BME280;54941;52.220;104.306;2023-12-29T02:42:07;96697.97;;;-4.71;85.52
68141;BME280;54941;52.220;104.306;2023-12-29T02:44:34;96698.22;;;-4.65;84.87
68141;BME280;54941;52.220;104.306;2023-12-29T02:47:00;96708.09;;;-4.55;85.23
68141;BME280;54941;52.220;104.306;2023-12-29T02:49:28;96712.28;;;-4.37;85.11
68141;BME280;54941;52.220;104.306;2023-12-29T02:51:54;96713.59;;;-4.47;84.04
68141;BME280;54941;52.220;104.306;2023-12-29T02:54:20;96710.16;;;-4.67;84.94
68141;BME280;54941;52.220;104.306;2023-12-29T02:56:47;96714.63;;;-4.42;84.71
68141;BME280;54941;52.220;104.306;2023-12-29T02:59:14;96701.69;;;-4.23;83.99
68141;BME280;54941;52.220;104.306;2023-12-29T03:01:40;96705.66;;;-4.31;84.00
68141;BME280;54941;52.220;104.306;2023-12-29T03:04:06;96701.63;;;-4.03;83.15
68141;BME280;54941;52.220;104.306;2023-12-29T03:06:34;96707.75;;;-4.00;82.84
68141;BME280;54941;52.220;104.306;2023-12-29T03:09:00;96709.03;;;-4.11;83.57
68141;BME280;54941;52.220;104.306;2023-12-29T03:11:27;96701.34;;;-4.09;83.56
68141;BME280;54941;52.220;104.306;2023-12-29T03:13:53;96704.44;;;-3.53;82.34
68141;BME280;54941;52.220;104.306;2023-12-29T03:16:19;96707.38;;;-3.88;82.31
68141;BME280;54941;52.220;104.306;2023-12-29T03:18:45;96713.53;;;-3.62;81.92
68141;BME280;54941;52.220;104.306;2023-12-29T03:21:11;96713.31;;;-3.46;81.74
68141;BME280;54941;52.220;104.306;2023-12-29T03:23:39;96702.56;;;-3.34;81.21
68141;BME280;54941;52.220;104.306;2023-12-29T03:26:05;96701.13;;;-3.48;80.48
68141;BME280;54941;52.220;104.306;2023-12-29T03:28:32;96704.31;;;-3.78;81.93
68141;BME280;54941;52.220;104.306;2023-12-29T03:30:58;96697.97;;;-3.64;81.80
68141;BME280;54941;52.220;104.306;2023-12-29T03:33:24;96695.31;;;-3.20;81.24
68141;BME280;54941;52.220;104.306;2023-12-29T03:35:51;96702.38;;;-3.39;81.65
68141;BME280;54941;52.220;104.306;2023-12-29T03:38:17;96700.03;;;-3.09;80.43
68141;BME280;54941;52.220;104.306;2023-12-29T03:40:45;96698.81;;;-3.18;80.63
68141;BME280;54941;52.220;104.306;2023-12-29T03:43:11;96706.13;;;-3.31;80.73
68141;BME280;54941;52.220;104.306;2023-12-29T03:45:37;96703.81;;;-3.23;80.50
68141;BME280;54941;52.220;104.306;2023-12-29T03:48:04;96697.25;;;-3.13;79.47
68141;BME280;54941;52.220;104.306;2023-12-29T03:50:30;96691.44;;;-3.32;80.30
68141;BME280;54941;52.220;104.306;2023-12-29T03:52:57;96689.81;;;-3.52;81.82
68141;BME280;54941;52.220;104.306;2023-12-29T03:55:23;96685.94;;;-3.17;81.75
68141;BME280;54941;52.220;104.306;2023-12-29T03:57:51;96683.59;;;-3.35;81.49
68141;BME280;54941;52.220;104.306;2023-12-29T04:00:18;96685.16;;;-3.38;81.49
68141;BME280;54941;52.220;104.306;2023-12-29T04:02:44;96680.88;;;-3.38;81.29
68141;BME280;54941;52.220;104.306;2023-12-29T04:05:10;96678.72;;;-3.02;81.86
68141;BME280;54941;52.220;104.306;2023-12-29T04:07:38;96673.44;;;-2.55;79.51
68141;BME280;54941;52.220;104.306;2023-12-29T04:10:05;96673.41;;;-3.06;79.81
68141;BME280;54941;52.220;104.306;2023-12-29T04:12:32;96672.19;;;-2.92;80.14
68141;BME280;54941;52.220;104.306;2023-12-29T04:14:59;96668.03;;;-2.63;79.89
68141;BME280;54941;52.220;104.306;2023-12-29T04:17:25;96676.56;;;-2.40;79.11
68141;BME280;54941;52.220;104.306;2023-12-29T04:19:52;96673.19;;;-2.63;79.60
68141;BME280;54941;52.220;104.306;2023-12-29T04:22:18;96675.41;;;-2.48;77.99
68141;BME280;54941;52.220;104.306;2023-12-29T04:24:44;96673.75;;;-2.46;78.81
68141;BME280;54941;52.220;104.306;2023-12-29T04:27:13;96667.78;;;-2.95;80.16
68141;BME280;54941;52.220;104.306;2023-12-29T04:29:39;96668.81;;;-2.89;80.35
68141;BME280;54941;52.220;104.306;2023-12-29T04:32:07;96665.75;;;-2.54;79.90
68141;BME280;54941;52.220;104.306;2023-12-29T04:34:34;96665.28;;;-2.42;78.58
68141;BME280;54941;52.220;104.306;2023-12-29T04:37:00;96662.84;;;-2.88;81.07
68141;BME280;54941;52.220;104.306;2023-12-29T04:39:27;96662.94;;;-2.85;80.98
68141;BME280;54941;52.220;104.306;2023-12-29T04:41:53;96663.31;;;-3.00;81.61
68141;BME280;54941;52.220;104.306;2023-12-29T04:44:19;96667.47;;;-2.78;81.26
68141;BME280;54941;52.220;104.306;2023-12-29T04:46:46;96660.19;;;-2.66;80.70
68141;BME280;54941;52.220;104.306;2023-12-29T04:49:13;96661.56;;;-2.23;79.86
68141;BME280;54941;52.220;104.306;2023-12-29T04:51:40;96659.41;;;-1.83;78.06
68141;BME280;54941;52.220;104.306;2023-12-29T04:54:06;96655.38;;;-2.01;77.96
68141;BME280;54941;52.220;104.306;2023-12-29T04:56:32;96667.19;;;-2.62;79.68
68141;BME280;54941;52.220;104.306;2023-12-29T04:58:58;96660.00;;;-2.45;80.30
68141;BME280;54941;52.220;104.306;2023-12-29T05:01:25;96653.69;;;-1.99;78.81
68141;BME280;54941;52.220;104.306;2023-12-29T05:03:51;96655.47;;;-2.25;78.95
68141;BME280;54941;52.220;104.306;2023-12-29T05:06:19;96655.78;;;-1.88;78.68
68141;BME280;54941;52.220;104.306;2023-12-29T05:08:45;96658.03;;;-1.98;78.13
68141;BME280;54941;52.220;104.306;2023-12-29T05:11:11;96657.22;;;-2.24;79.59
68141;BME280;54941;52.220;104.306;2023-12-29T05:13:37;96662.19;;;-1.77;78.35
68141;BME280;54941;52.220;104.306;2023-12-29T05:16:06;96652.53;;;-1.52;77.28
68141;BME280;54941;52.220;104.306;2023-12-29T05:18:33;96658.59;;;-1.82;77.83
68141;BME280;54941;52.220;104.306;2023-12-29T05:20:59;96661.47;;;-1.99;78.33
68141;BME280;54941;52.220;104.306;2023-12-29T05:23:27;96656.91;;;-1.80;78.00
68141;BME280;54941;52.220;104.306;2023-12-29T05:25:53;96653.06;;;-1.92;77.51
68141;BME280;54941;52.220;104.306;2023-12-29T05:28:19;96656.09;;;-2.32;79.25
68141;BME280;54941;52.220;104.306;2023-12-29T05:30:45;96654.25;;;-2.37;80.31
68141;BME280;54941;52.220;104.306;2023-12-29T05:33:12;96654.94;;;-2.15;79.51
68141;BME280;54941;52.220;104.306;2023-12-29T05:35:38;96656.00;;;-2.36;79.78
68141;BME280;54941;52.220;104.306;2023-12-29T05:38:04;96658.66;;;-1.79;78.25
68141;BME280;54941;52.220;104.306;2023-12-29T05:40:32;96655.31;;;-1.74;77.16
68141;BME280;54941;52.220;104.306;2023-12-29T05:42:58;96643.22;;;-1.47;76.40
68141;BME280;54941;52.220;104.306;2023-12-29T05:45:24;96650.84;;;-1.80;77.07
68141;BME280;54941;52.220;104.306;2023-12-29T05:47:51;96653.75;;;-1.98;78.05
68141;BME280;54941;52.220;104.306;2023-12-29T05:50:17;96657.66;;;-1.84;77.56
68141;BME280;54941;52.220;104.306;2023-12-29T05:52:43;96655.91;;;-1.85;78.17
68141;BME280;54941;52.220;104.306;2023-12-29T05:55:10;96649.28;;;-1.47;77.09
68141;BME280;54941;52.220;104.306;2023-12-29T05:57:37;96650.41;;;-1.37;76.65
68141;BME280;54941;52.220;104.306;2023-12-29T06:00:04;96647.38;;;-1.81;76.53
68141;BME280;54941;52.220;104.306;2023-12-29T06:02:31;96643.44;;;-1.68;77.19
68141;BME280;54941;52.220;104.306;2023-12-29T06:04:57;96648.69;;;-1.95;77.31
68141;BME280;54941;52.220;104.306;2023-12-29T06:07:23;96640.53;;;-1.79;77.76
68141;BME280;54941;52.220;104.306;2023-12-29T06:09:49;96636.84;;;-1.58;77.72
68141;BME280;54941;52.220;104.306;2023-12-29T06:12:16;96633.56;;;-1.51;77.48
68141;BME280;54941;52.220;104.306;2023-12-29T06:14:43;96635.03;;;-1.61;77.81
68141;BME280;54941;52.220;104.306;2023-12-29T06:17:10;96635.00;;;-1.32;76.39
68141;BME280;54941;52.220;104.306;2023-12-29T06:19:36;96636.53;;;-1.39;77.55
68141;BME280;54941;52.220;104.306;2023-12-29T06:22:02;96631.50;;;-1.63;77.85
68141;BME280;54941;52.220;104.306;2023-12-29T06:24:29;96634.00;;;-1.66;78.79
68141;BME280;54941;52.220;104.306;2023-12-29T06:26:55;96634.94;;;-1.34;78.03
68141;BME280;54941;52.220;104.306;2023-12-29T06:29:21;96631.38;;;-1.67;78.89
68141;BME280;54941;52.220;104.306;2023-12-29T06:31:49;96639.91;;;-1.71;79.00
68141;BME280;54941;52.220;104.306;2023-12-29T06:34:15;96644.22;;;-1.42;78.60
68141;BME280;54941;52.220;104.306;2023-12-29T06:36:41;96638.34;;;-1.65;79.08
68141;BME280;54941;52.220;104.306;2023-12-29T06:39:08;96639.59;;;-1.52;78.61
68141;BME280;54941;52.220;104.306;2023-12-29T06:41:34;96627.28;;;-1.29;78.05
68141;BME280;54941;52.220;104.306;2023-12-29T06:44:00;96641.19;;;-1.57;78.81
68141;BME280;54941;52.220;104.306;2023-12-29T06:46:26;96645.88;;;-1.44;78.27
68141;BME280;54941;52.220;104.306;2023-12-29T06:48:54;96643.09;;;-1.20;77.37
68141;BME280;54941;52.220;104.306;2023-12-29T06:51:21;96637.63;;;-1.31;77.07
68141;BME280;54941;52.220;104.306;2023-12-29T06:53:47;96645.94;;;-1.42;77.24
68141;BME280;54941;52.220;104.306;2023-12-29T06:56:14;96639.09;;;-1.09;77.04
68141;BME280;54941;52.220;104.306;2023-12-29T06:58:40;96642.97;;;-1.26;76.92
68141;BME280;54941;52.220;104.306;2023-12-29T07:01:07;96646.44;;;-1.54;77.60
68141;BME280;54941;52.220;104.306;2023-12-29T07:03:33;96646.25;;;-1.62;78.27
68141;BME280;54941;52.220;104.306;2023-12-29T07:06:02;96649.06;;;-1.53;77.77
68141;BME280;54941;52.220;104.306;2023-12-29T07:08:28;96645.84;;;-1.45;78.06
68141;BME280;54941;52.220;104.306;2023-12-29T07:10:54;96647.94;;;-1.32;77.75
68141;BME280;54941;52.220;104.306;2023-12-29T07:13:21;96649.44;;;-1.10;76.42
68141;BME280;54941;52.220;104.306;2023-12-29T07:15:47;96647.25;;;-1.57;78.11
68141;BME280;54941;52.220;104.306;2023-12-29T07:18:13;96651.81;;;-1.77;78.60
68141;BME280;54941;52.220;104.306;2023-12-29T07:20:40;96654.41;;;-1.77;79.10
68141;BME280;54941;52.220;104.306;2023-12-29T07:23:07;96648.31;;;-1.50;78.53
68141;BME280;54941;52.220;104.306;2023-12-29T07:25:34;96655.81;;;-1.59;78.92
68141;BME280;54941;52.220;104.306;2023-12-29T07:28:00;96652.75;;;-1.74;79.60
68141;BME280;54941;52.220;104.306;2023-12-29T07:30:26;96656.19;;;-2.02;79.09
68141;BME280;54941;52.220;104.306;2023-12-29T07:32:52;96653.00;;;-1.95;79.45
68141;BME280;54941;52.220;104.306;2023-12-29T07:35:19;96661.03;;;-2.13;80.79
68141;BME280;54941;52.220;104.306;2023-12-29T07:37:46;96655.16;;;-2.35;82.01
68141;BME280;54941;52.220;104.306;2023-12-29T07:40:14;96660.69;;;-1.97;81.54
68141;BME280;54941;52.220;104.306;2023-12-29T07:42:41;96672.00;;;-2.20;81.55
68141;BME280;54941;52.220;104.306;2023-12-29T07:45:08;96664.69;;;-2.33;82.08
68141;BME280;54941;52.220;104.306;2023-12-29T07:47:34;96666.34;;;-2.36;81.79
68141;BME280;54941;52.220;104.306;2023-12-29T07:50:01;96664.81;;;-2.56;83.32
68141;BME280;54941;52.220;104.306;2023-12-29T07:52:27;96664.31;;;-2.44;83.34
68141;BME280;54941;52.220;104.306;2023-12-29T07:54:54;96666.75;;;-2.23;82.99
68141;BME280;54941;52.220;104.306;2023-12-29T07:57:21;96667.56;;;-2.24;82.21
68141;BME280;54941;52.220;104.306;2023-12-29T07:59:48;96669.28;;;-2.52;83.32
68141;BME280;54941;52.220;104.306;2023-12-29T08:02:14;96674.97;;;-2.62;84.28
68141;BME280;54941;52.220;104.306;2023-12-29T08:04:40;96672.06;;;-2.71;84.39
68141;BME280;54941;52.220;104.306;2023-12-29T08:07:06;96672.69;;;-2.53;83.89
68141;BME280;54941;52.220;104.306;2023-12-29T08:09:33;96678.47;;;-2.60;84.39
68141;BME280;54941;52.220;104.306;2023-12-29T08:11:59;96685.41;;;-2.59;84.61
68141;BME280;54941;52.220;104.306;2023-12-29T08:14:27;96685.91;;;-2.69;84.86
68141;BME280;54941;52.220;104.306;2023-12-29T08:16:53;96683.50;;;-2.65;85.07
68141;BME280;54941;52.220;104.306;2023-12-29T08:19:19;96684.16;;;-2.45;84.62
68141;BME280;54941;52.220;104.306;2023-12-29T08:21:45;96682.28;;;-2.23;83.64
68141;BME280;54941;52.220;104.306;2023-12-29T08:24:12;96675.66;;;-2.15;83.09
68141;BME280;54941;52.220;104.306;2023-12-29T08:26:44;96682.19;;;-2.26;83.74
68141;BME280;54941;52.220;104.306;2023-12-29T08:29:10;96690.97;;;-2.47;84.31
68141;BME280;54941;52.220;104.306;2023-12-29T08:31:38;96697.44;;;-2.34;83.99
68141;BME280;54941;52.220;104.306;2023-12-29T08:34:04;96692.03;;;-2.42;84.10
68141;BME280;54941;52.220;104.306;2023-12-29T08:36:31;96699.25;;;-2.57;84.92
68141;BME280;54941;52.220;104.306;2023-12-29T08:38:57;96701.75;;;-2.60;85.00
68141;BME280;54941;52.220;104.306;2023-12-29T08:41:23;96697.09;;;-2.70;85.33
68141;BME280;54941;52.220;104.306;2023-12-29T08:43:49;96699.22;;;-2.58;85.23
68141;BME280;54941;52.220;104.306;2023-12-29T08:46:16;96702.56;;;-2.36;84.82
68141;BME280;54941;52.220;104.306;2023-12-29T08:48:43;96708.47;;;-2.40;85.17
68141;BME280;54941;52.220;104.306;2023-12-29T08:51:10;96707.25;;;-2.51;85.48
68141;BME280;54941;52.220;104.306;2023-12-29T08:53:36;96711.00;;;-2.67;86.25
68141;BME280;54941;52.220;104.306;2023-12-29T08:56:02;96712.31;;;-2.54;86.59
68141;BME280;54941;52.220;104.306;2023-12-29T08:58:29;96711.25;;;-2.33;85.91
68141;BME280;54941;52.220;104.306;2023-12-29T09:00:55;96704.00;;;-2.44;86.25
68141;BME280;54941;52.220;104.306;2023-12-29T09:03:22;96707.38;;;-2.21;85.26
68141;BME280;54941;52.220;104.306;2023-12-29T09:05:50;96708.25;;;-2.46;86.44
68141;BME280;54941;52.220;104.306;2023-12-29T09:08:16;96714.03;;;-2.54;86.77
68141;BME280;54941;52.220;104.306;2023-12-29T09:10:42;96718.75;;;-2.43;87.41
68141;BME280;54941;52.220;104.306;2023-12-29T09:13:09;96712.19;;;-2.57;87.21
68141;BME280;54941;52.220;104.306;2023-12-29T09:15:35;96714.72;;;-2.58;87.84
68141;BME280;54941;52.220;104.306;2023-12-29T09:18:01;96725.72;;;-2.40;87.30
68141;BME280;54941;52.220;104.306;2023-12-29T09:20:27;96718.09;;;-2.61;87.71
68141;BME280;54941;52.220;104.306;2023-12-29T09:22:55;96726.50;;;-2.43;88.38
68141;BME280;54941;52.220;104.306;2023-12-29T09:25:21;96721.09;;;-2.49;87.56
68141;BME280;54941;52.220;104.306;2023-12-29T09:27:48;96712.91;;;-2.61;88.52
68141;BME280;54941;52.220;104.306;2023-12-29T09:30:14;96716.91;;;-2.45;88.36
68141;BME280;54941;52.220;104.306;2023-12-29T09:32:40;96717.72;;;-2.46;88.16
68141;BME280;54941;52.220;104.306;2023-12-29T09:35:07;96720.00;;;-2.55;88.49
68141;BME280;54941;52.220;104.306;2023-12-29T09:37:33;96721.41;;;-2.65;88.87
68141;BME280;54941;52.220;104.306;2023-12-29T09:40:02;96719.69;;;-2.65;89.13
68141;BME280;54941;52.220;104.306;2023-12-29T09:42:30;96723.47;;;-2.55;88.77
68141;BME280;54941;52.220;104.306;2023-12-29T09:44:57;96727.38;;;-2.42;87.32
68141;BME280;54941;52.220;104.306;2023-12-29T09:47:25;96734.75;;;-2.53;88.14
68141;BME280;54941;52.220;104.306;2023-12-29T09:49:52;96730.94;;;-2.39;88.41
68141;BME280;54941;52.220;104.306;2023-12-29T09:52:20;96734.44;;;-2.37;87.65
68141;BME280;54941;52.220;104.306;2023-12-29T09:54:48;96738.06;;;-2.57;88.00
68141;BME280;54941;52.220;104.306;2023-12-29T09:57:18;96736.53;;;-2.52;88.48
68141;BME280;54941;52.220;104.306;2023-12-29T09:59:45;96741.53;;;-2.56;88.49
68141;BME280;54941;52.220;104.306;2023-12-29T10:02:13;96725.75;;;-2.64;88.97
68141;BME280;54941;52.220;104.306;2023-12-29T10:04:40;96738.34;;;-2.49;88.84
68141;BME280;54941;52.220;104.306;2023-12-29T10:07:15;96736.56;;;-2.25;87.87
68141;BME280;54941;52.220;104.306;2023-12-29T10:09:46;96742.31;;;-2.33;88.13
68141;BME280;54941;52.220;104.306;2023-12-29T10:12:13;96747.75;;;-2.51;88.19
68141;BME280;54941;52.220;104.306;2023-12-29T10:14:46;96744.34;;;-2.50;88.73
68141;BME280;54941;52.220;104.306;2023-12-29T10:17:21;96742.19;;;-2.62;89.05
68141;BME280;54941;52.220;104.306;2023-12-29T10:20:02;96739.16;;;-2.50;89.05
68141;BME280;54941;52.220;104.306;2023-12-29T10:22:42;96754.63;;;-2.26;87.84
68141;BME280;54941;52.220;104.306;2023-12-29T10:25:11;96750.28;;;-2.53;88.32
68141;BME280;54941;52.220;104.306;2023-12-29T10:27:37;96748.41;;;-2.57;88.98
68141;BME280;54941;52.220;104.306;2023-12-29T10:30:10;96746.09;;;-2.49;88.96
68141;BME280;54941;52.220;104.306;2023-12-29T10:32:37;96745.66;;;-2.61;88.80
68141;BME280;54941;52.220;104.306;2023-12-29T10:35:09;96740.94;;;-2.73;89.51
68141;BME280;54941;52.220;104.306;2023-12-29T10:37:36;96749.19;;;-2.59;89.17
68141;BME280;54941;52.220;104.306;2023-12-29T10:40:03;96745.22;;;-2.24;88.26
68141;BME280;54941;52.220;104.306;2023-12-29T10:42:29;96747.59;;;-2.30;87.93
68141;BME280;54941;52.220;104.306;2023-12-29T10:45:07;96744.06;;;-2.32;87.82
68141;BME280;54941;52.220;104.306;2023-12-29T10:47:34;96749.31;;;-2.31;88.03
68141;BME280;54941;52.220;104.306;2023-12-29T10:50:01;96754.38;;;-2.34;87.95
68141;BME280;54941;52.220;104.306;2023-12-29T10:52:30;96756.91;;;-2.36;87.96
68141;BME280;54941;52.220;104.306;2023-12-29T10:55:04;96747.06;;;-2.46;88.09
68141;BME280;54941;52.220;104.306;2023-12-29T10:57:31;96745.22;;;-2.50;88.26
68141;BME280;54941;52.220;104.306;2023-12-29T10:59:57;96745.25;;;-2.48;88.13
68141;BME280;54941;52.220;104.306;2023-12-29T11:02:25;96744.38;;;-2.49;88.40
68141;BME280;54941;52.220;104.306;2023-12-29T11:04:51;96739.25;;;-2.47;88.60
68141;BME280;54941;52.220;104.306;2023-12-29T11:07:31;96746.03;;;-2.51;88.09
68141;BME280;54941;52.220;104.306;2023-12-29T11:10:00;96742.41;;;-2.56;88.44
68141;BME280;54941;52.220;104.306;2023-12-29T11:12:26;96744.69;;;-2.40;88.51
68141;BME280;54941;52.220;104.306;2023-12-29T11:14:53;96748.63;;;-2.51;88.25
68141;BME280;54941;52.220;104.306;2023-12-29T11:17:19;96745.66;;;-2.61;88.54
68141;BME280;54941;52.220;104.306;2023-12-29T11:19:49;96739.16;;;-2.50;88.26
68141;BME280;54941;52.220;104.306;2023-12-29T11:22:17;96744.38;;;-2.49;88.13
68141;BME280;54941;52.220;104.306;2023-12-29T11:24:46;96733.09;;;-2.51;88.05
68141;BME280;54941;52.220;104.306;2023-12-29T11:27:12;96740.78;;;-2.54;88.32
68141;BME280;54941;52.220;104.306;2023-12-29T11:29:42;96737.22;;;-2.56;87.78
68141;BME280;54941;52.220;104.306;2023-12-29T11:32:12;96741.06;;;-2.45;88.10
68141;BME280;54941;52.220;104.306;2023-12-29T11:34:44;96740.13;;;-2.47;87.79
68141;BME280;54941;52.220;104.306;2023-12-29T11:37:21;96741.13;;;-2.67;87.98
68141;BME280;54941;52.220;104.306;2023-12-29T11:40:00;96749.53;;;-2.74;88.49
68141;BME280;54941;52.220;104.306;2023-12-29T11:42:34;96746.00;;;-2.76;88.71
68141;BME280;54941;52.220;104.306;2023-12-29T11:45:25;96753.91;;;-2.72;88.74
68141;BME280;54941;52.220;104.306;2023-12-29T11:47:51;96743.47;;;-2.75;88.89
68141;BME280;54941;52.220;104.306;2023-12-29T11:50:27;96746.38;;;-2.89;88.63
68141;BME280;54941;52.220;104.306;2023-12-29T11:52:55;96750.50;;;-2.95;89.06
68141;BME280;54941;52.220;104.306;2023-12-29T11:55:21;96745.56;;;-2.88;89.06
68141;BME280;54941;52.220;104.306;2023-12-29T11:57:54;96738.78;;;-2.61;88.51
68141;BME280;54941;52.220;104.306;2023-12-29T12:00:20;96739.97;;;-2.77;88.57
68141;BME280;54941;52.220;104.306;2023-12-29T12:02:47;96740.16;;;-2.95;88.73
68141;BME280;54941;52.220;104.306;2023-12-29T12:05:44;96740.13;;;-2.96;89.07
68141;BME280;54941;52.220;104.306;2023-12-29T12:08:26;96737.63;;;-2.93;89.14
68141;BME280;54941;52.220;104.306;2023-12-29T12:10:53;96742.56;;;-3.01;88.90
68141;BME280;54941;52.220;104.306;2023-12-29T12:13:44;96733.56;;;-3.10;89.18
68141;BME280;54941;52.220;104.306;2023-12-29T12:16:46;96748.84;;;-3.16;89.20
68141;BME280;54941;52.220;104.306;2023-12-29T12:19:14;96742.50;;;-3.25;89.34
68141;BME280;54941;52.220;104.306;2023-12-29T12:21:41;96738.97;;;-3.27;89.46
68141;BME280;54941;52.220;104.306;2023-12-29T12:24:09;96737.47;;;-3.44;89.53
68141;BME280;54941;52.220;104.306;2023-12-29T12:26:36;96737.22;;;-3.50;89.87
68141;BME280;54941;52.220;104.306;2023-12-29T12:29:02;96730.41;;;-3.48;90.01
68141;BME280;54941;52.220;104.306;2023-12-29T12:31:29;96726.91;;;-3.50;89.94
68141;BME280;54941;52.220;104.306;2023-12-29T12:33:55;96728.97;;;-3.64;90.10
68141;BME280;54941;52.220;104.306;2023-12-29T12:36:22;96726.84;;;-3.74;90.11
68141;BME280;54941;52.220;104.306;2023-12-29T12:38:52;96722.34;;;-3.79;90.15
68141;BME280;54941;52.220;104.306;2023-12-29T12:41:21;96714.53;;;-3.81;90.71
68141;BME280;54941;52.220;104.306;2023-12-29T12:43:52;96715.53;;;-3.77;90.32
68141;BME280;54941;52.220;104.306;2023-12-29T12:46:23;96717.03;;;-3.83;90.71
68141;BME280;54941;52.220;104.306;2023-12-29T12:48:50;96711.72;;;-3.87;90.23
68141;BME280;54941;52.220;104.306;2023-12-29T12:51:16;96710.47;;;-3.74;90.63
68141;BME280;54941;52.220;104.306;2023-12-29T12:53:45;96710.00;;;-3.87;90.40
68141;BME280;54941;52.220;104.306;2023-12-29T12:56:11;96709.22;;;-4.06;90.05
68141;BME280;54941;52.220;104.306;2023-12-29T12:58:39;96713.66;;;-4.25;90.78
68141;BME280;54941;52.220;104.306;2023-12-29T13:01:07;96713.97;;;-4.38;91.30
68141;BME280;54941;52.220;104.306;2023-12-29T13:03:34;96710.41;;;-4.40;91.48
68141;BME280;54941;52.220;104.306;2023-12-29T13:06:03;96699.50;;;-4.34;92.05
68141;BME280;54941;52.220;104.306;2023-12-29T13:08:29;96699.81;;;-4.27;92.57